Time;durP1;ratioP1;P1;durP2;ratioP2;P2;SDS_P1;SDS_P2;PMS_P1;PMS_P2;Temp;Humidity;BMP_temperature;BMP_pressure;BME280_temperature;BME280_humidity;BME280_pressure;Samples;Min_cycle;Max_cycle;Signal;HPM_P1;HPM_P2
2024/01/11 00:00:11;;;;;;;;;;;;;;;;;;2064741;28;19905;-79
2024/01/11 00:01:31;;;;;;;;;;;;;;;;;;2064364;28;19913;-80
2024/01/11 00:02:52;;;;;;;;;;;;;;;;;;2057718;28;19906;-79
2024/01/11 00:04:13;;;;;;;;;;;;;;;;;;2067288;28;20301;-79
2024/01/11 00:05:33;;;;;;;;;;;;;;;;;;2064740;28;19925;-79
2024/01/11 00:06:54;;;;;;;;;;;;;;;;;;2061189;28;20298;-79
2024/01/11 00:08:15;;;;;;;;;;;;;;;;;;2059547;28;19918;-79
2024/01/11 00:09:35;;;;;;;;;;;;;;;;;;2063267;28;19910;-79
2024/01/11 00:10:56;;;;;;;;;;;;;;;;;;2065642;28;20285;-79
2024/01/11 00:12:17;;;;;;;;;;;;;;;;;;2058509;28;19961;-79
2024/01/11 00:13:37;;;;;;;;;;;;;;;;;;2061086;28;19905;-79
2024/01/11 00:14:58;;;;;;;;;;;;;;;;;;2060208;28;20498;-79
2024/01/11 00:16:19;;;;;;;;;;;;;;;;;;2066551;28;19918;-79
2024/01/11 00:17:40;;;;;;;;;;;;;;;;;;2061442;28;19913;-79
2024/01/11 00:19:01;;;;;;;;;;;;;;;;;;2060484;28;19917;-79
2024/01/11 00:20:21;;;;;;;;;;;;;;;;;;2060225;28;19933;-79
2024/01/11 00:21:42;;;;;;;;;;;;;;;;;;2064510;28;19906;-79
2024/01/11 00:23:03;;;;;;;;;;;;;;;;;;2065637;28;19910;-79
2024/01/11 00:24:23;;;;;;;;;;;;;;;;;;2065626;28;19906;-79
2024/01/11 00:25:44;;;;;;;;;;;;;;;;;;2059063;28;19940;-79
2024/01/11 00:27:05;;;;;;;;;;;;;;;;;;2058913;28;19918;-79
2024/01/11 00:28:25;;;;;;;;;;;;;;;;;;2061317;28;19906;-78
2024/01/11 00:29:46;;;;;;;;;;;;;;;;;;2059199;28;19916;-78
2024/01/11 00:31:07;;;;;;;;;;;;;;;;;;2057523;28;20424;-78
2024/01/11 00:32:27;;;;;;;;;;;;;;;;;;2064621;28;19905;-78
2024/01/11 00:33:48;;;;;;;;;;;;;;;;;;2060305;28;19921;-78
2024/01/11 00:35:09;;;;;;;;;;;;;;;;;;2057169;28;20362;-77
2024/01/11 00:36:29;;;;;;;;;;;;;;;;;;2058906;28;19921;-78
2024/01/11 00:37:50;;;;;;;;;;;;;;;;;;2061619;28;20416;-78
2024/01/11 00:39:11;;;;;;;;;;;;;;;;;;2058933;28;19906;-78
2024/01/11 00:40:32;;;;;;;;;;;;;;;;;;2064070;28;20536;-78
2024/01/11 00:41:53;;;;;;;;;;;;;;;;;;2059384;28;19910;-78
2024/01/11 00:43:13;;;;;;;;;;;;;;;;;;2058472;28;19910;-78
2024/01/11 00:44:34;;;;;;;;;;;;;;;;;;2059799;28;19914;-78
2024/01/11 00:45:55;;;;;;;;;;;;;;;;;;2048419;29;19914;-78
2024/01/11 00:47:16;;;;;;;;;;;;;;;;;;2060738;28;19906;-78
2024/01/11 00:48:37;;;;;;;;;;;;;;;;;;2052707;28;19918;-78
2024/01/11 00:49:58;;;;;;;;;;;;;;;;;;2062338;28;19916;-78
2024/01/11 00:51:18;;;;;;;;;;;;;;;;;;2063364;28;20104;-78
2024/01/11 00:52:39;;;;;;;;;;;;;;;;;;2064738;28;19914;-78
2024/01/11 00:54:00;;;;;;;;;;;;;;;;;;2064537;28;19906;-78
2024/01/11 00:55:21;;;;;;;;;;;;;;;;;;2064021;28;19921;-77
2024/01/11 00:56:41;;;;;;;;;;;;;;;;;;2057369;28;19918;-78
2024/01/11 00:58:02;;;;;;;;;;;;;;;;;;2063558;28;19906;-79
2024/01/11 00:59:23;;;;;;;;;;;;;;;;;;2060364;28;19918;-78
2024/01/11 01:00:43;;;;;;;;;;;;;;;;;;2058528;28;19920;-78
2024/01/11 01:02:04;;;;;;;;;;;;;;;;;;2060546;28;19909;-78
2024/01/11 01:03:25;;;;;;;;;;;;;;;;;;2054597;28;20046;-78
2024/01/11 01:04:45;;;;;;;;;;;;;;;;;;2058502;28;19917;-77
2024/01/11 01:06:06;;;;;;;;;;;;;;;;;;2054814;28;19926;-77
2024/01/11 01:07:27;;;;;;;;;;;;;;;;;;2057660;28;19918;-78
2024/01/11 01:08:47;;;;;;;;;;;;;;;;;;2054038;28;19910;-78
2024/01/11 01:10:09;;;;;;;;;;;;;;;;;;2064119;28;19921;-78
2024/01/11 01:11:29;;;;;;;;;;;;;;;;;;2059139;28;19913;-78
2024/01/11 01:12:50;;;;;;;;;;;;;;;;;;2062740;28;20377;-78
2024/01/11 01:14:11;;;;;;;;;;;;;;;;;;2059092;28;19910;-78
2024/01/11 01:15:31;;;;;;;;;;;;;;;;;;2060240;28;19914;-78
2024/01/11 01:16:52;;;;;;;;;;;;;;;;;;2064269;28;20286;-78
2024/01/11 01:18:13;;;;;;;;;;;;;;;;;;2064598;28;19917;-77
2024/01/11 01:19:33;;;;;;;;;;;;;;;;;;2063066;28;19905;-77
2024/01/11 01:20:54;;;;;;;;;;;;;;;;;;2062243;28;20487;-78
2024/01/11 01:22:15;;;;;;;;;;;;;;;;;;2059669;28;20289;-78
2024/01/11 01:23:35;;;;;;;;;;;;;;;;;;2062608;28;19916;-78
2024/01/11 01:24:56;;;;;;;;;;;;;;;;;;2061384;28;19928;-77
2024/01/11 01:26:17;;;;;;;;;;;;;;;;;;2057877;28;19915;-78
2024/01/11 01:27:37;;;;;;;;;;;;;;;;;;2060836;28;19910;-78
2024/01/11 01:28:58;;;;;;;;;;;;;;;;;;2064791;28;19971;-78
2024/01/11 01:30:19;;;;;;;;;;;;;;;;;;2064387;28;20328;-78
2024/01/11 01:31:40;;;;;;;;;;;;;;;;;;2058129;28;19910;-78
2024/01/11 01:33:00;;;;;;;;;;;;;;;;;;2060879;28;19909;-78
2024/01/11 01:34:21;;;;;;;;;;;;;;;;;;2063914;28;19916;-78
2024/01/11 01:35:42;;;;;;;;;;;;;;;;;;2066802;28;19924;-78
2024/01/11 01:37:02;;;;;;;;;;;;;;;;;;2056724;28;20223;-78
2024/01/11 01:38:23;;;;;;;;;;;;;;;;;;2061190;28;19921;-78
2024/01/11 01:39:44;;;;;;;;;;;;;;;;;;2065275;28;19909;-79
2024/01/11 01:41:05;;;;;;;;;;;;;;;;;;2056059;28;20323;-78
2024/01/11 01:42:25;;;;;;;;;;;;;;;;;;2060297;28;19910;-78
2024/01/11 01:43:46;;;;;;;;;;;;;;;;;;2051026;28;19910;-77
2024/01/11 01:45:07;;;;;;;;;;;;;;;;;;2062332;28;19937;-78
2024/01/11 01:46:27;;;;;;;;;;;;;;;;;;2062017;28;19964;-78
2024/01/11 01:47:48;;;;;;;;;;;;;;;;;;2065187;28;19910;-78
2024/01/11 01:49:09;;;;;;;;;;;;;;;;;;2065279;28;20307;-77
2024/01/11 01:50:30;;;;;;;;;;;;;;;;;;2064434;28;19913;-77
2024/01/11 01:51:51;;;;;;;;;;;;;;;;;;2061601;28;19917;-77
2024/01/11 01:53:11;;;;;;;;;;;;;;;;;;2060940;28;20298;-78
2024/01/11 01:54:32;;;;;;;;;;;;;;;;;;2057413;28;19914;-78
2024/01/11 01:55:53;;;;;;;;;;;;;;;;;;2064389;28;20389;-77
2024/01/11 01:57:13;;;;;;;;;;;;;;;;;;2057417;28;19910;-77
2024/01/11 01:58:34;;;;;;;;;;;;;;;;;;2060269;28;20350;-78
2024/01/11 01:59:55;;;;;;;;;;;;;;;;;;2057762;28;19990;-77
2024/01/11 02:01:15;;;;;;;;;;;;;;;;;;2055522;28;19910;-78
2024/01/11 02:02:36;;;;;;;;;;;;;;;;;;2058121;28;19910;-77
2024/01/11 02:03:57;;;;;;;;;;;;;;;;;;2058722;28;19906;-77
2024/01/11 02:05:17;;;;;;;;;;;;;;;;;;2063565;28;19910;-78
2024/01/11 02:06:38;;;;;;;;;;;;;;;;;;2054025;28;19932;-78
2024/01/11 02:07:59;;;;;;;;;;;;;;;;;;2059010;28;20002;-77
2024/01/11 02:09:20;;;;;;;;;;;;;;;;;;2060699;28;19914;-78
2024/01/11 02:10:41;;;;;;;;;;;;;;;;;;2058919;28;20331;-78
2024/01/11 02:12:02;;;;;;;;;;;;;;;;;;2061690;28;19914;-77
2024/01/11 02:13:22;;;;;;;;;;;;;;;;;;2060032;28;19910;-77
2024/01/11 02:14:43;;;;;;;;;;;;;;;;;;2061122;28;19914;-78
2024/01/11 02:16:04;;;;;;;;;;;;;;;;;;2063071;28;19929;-77
2024/01/11 02:17:24;;;;;;;;;;;;;;;;;;2063920;28;19914;-77
2024/01/11 02:18:45;;;;;;;;;;;;;;;;;;2060326;28;19917;-78
2024/01/11 02:20:06;;;;;;;;;;;;;;;;;;2058005;28;19932;-78
2024/01/11 02:21:27;;;;;;;;;;;;;;;;;;2058010;28;19906;-78
2024/01/11 02:22:48;;;;;;;;;;;;;;;;;;2062217;28;20285;-77
2024/01/11 02:24:09;;;;;;;;;;;;;;;;;;2057720;28;20255;-78
2024/01/11 02:25:29;;;;;;;;;;;;;;;;;;2055212;28;19996;-77
2024/01/11 02:26:50;;;;;;;;;;;;;;;;;;2056587;28;19949;-78
2024/01/11 02:28:11;;;;;;;;;;;;;;;;;;2064621;28;20535;-77
2024/01/11 02:29:32;;;;;;;;;;;;;;;;;;2062091;28;19910;-78
2024/01/11 02:30:52;;;;;;;;;;;;;;;;;;2064999;28;20314;-78
2024/01/11 02:32:13;;;;;;;;;;;;;;;;;;2058686;28;19910;-78
2024/01/11 02:33:34;;;;;;;;;;;;;;;;;;2057008;28;19914;-77
2024/01/11 02:34:54;;;;;;;;;;;;;;;;;;2061347;28;20254;-77
2024/01/11 02:36:15;;;;;;;;;;;;;;;;;;2061900;28;19910;-78
2024/01/11 02:37:36;;;;;;;;;;;;;;;;;;2057595;28;19917;-78
2024/01/11 02:38:56;;;;;;;;;;;;;;;;;;2057300;28;19914;-77
2024/01/11 02:40:17;;;;;;;;;;;;;;;;;;2061019;28;19917;-78
2024/01/11 02:41:38;;;;;;;;;;;;;;;;;;2064895;28;20234;-78
2024/01/11 02:42:58;;;;;;;;;;;;;;;;;;2063270;28;19933;-78
2024/01/11 02:44:19;;;;;;;;;;;;;;;;;;2065400;28;19905;-77
2024/01/11 02:45:40;;;;;;;;;;;;;;;;;;2063544;28;20334;-77
2024/01/11 02:47:00;;;;;;;;;;;;;;;;;;2060361;28;19940;-78
2024/01/11 02:48:21;;;;;;;;;;;;;;;;;;2056351;28;19906;-78
2024/01/11 02:49:42;;;;;;;;;;;;;;;;;;2052565;28;19906;-78
2024/01/11 02:51:03;;;;;;;;;;;;;;;;;;2060329;28;19909;-78
2024/01/11 02:52:23;;;;;;;;;;;;;;;;;;2061803;28;20341;-78
2024/01/11 02:53:44;;;;;;;;;;;;;;;;;;2063796;28;20379;-77
2024/01/11 02:55:05;;;;;;;;;;;;;;;;;;2059496;28;19913;-77
2024/01/11 02:56:25;;;;;;;;;;;;;;;;;;2062564;28;19945;-78
2024/01/11 02:57:46;;;;;;;;;;;;;;;;;;2064679;28;19910;-78
2024/01/11 02:59:07;;;;;;;;;;;;;;;;;;2060726;28;19921;-78
2024/01/11 03:00:27;;;;;;;;;;;;;;;;;;2063928;28;19910;-77
2024/01/11 03:01:48;;;;;;;;;;;;;;;;;;2064746;28;20363;-78
2024/01/11 03:03:09;;;;;;;;;;;;;;;;;;2058060;28;19932;-78
2024/01/11 03:04:29;;;;;;;;;;;;;;;;;;2057318;28;19918;-77
2024/01/11 03:05:50;;;;;;;;;;;;;;;;;;2063855;28;19906;-78
2024/01/11 03:07:11;;;;;;;;;;;;;;;;;;2062919;28;20805;-78
2024/01/11 03:08:31;;;;;;;;;;;;;;;;;;2064678;28;19917;-78
2024/01/11 03:09:53;;;;;;;;;;;;;;;;;;2059064;28;19913;-77
2024/01/11 03:11:14;;;;;;;;;;;;;;;;;;2058493;28;19914;-77
2024/01/11 03:12:34;;;;;;;;;;;;;;;;;;2057508;28;19914;-77
2024/01/11 03:13:55;;;;;;;;;;;;;;;;;;2060292;28;20413;-77
2024/01/11 03:15:16;;;;;;;;;;;;;;;;;;2060704;28;19916;-77
2024/01/11 03:16:39;;;;;;;;;;;;;;;;;;2063231;28;20305;-78
2024/01/11 03:18:00;;;;;;;;;;;;;;;;;;2061708;28;19910;-77
2024/01/11 03:19:20;;;;;;;;;;;;;;;;;;2063517;28;19929;-78
2024/01/11 03:20:41;;;;;;;;;;;;;;;;;;2061454;28;19917;-78
2024/01/11 03:22:06;;;;;;;;;;;;;;;;;;2057017;28;19910;-78
2024/01/11 03:23:26;;;;;;;;;;;;;;;;;;2059649;28;20257;-78
2024/01/11 03:24:47;;;;;;;;;;;;;;;;;;2066180;28;19910;-77
2024/01/11 03:26:08;;;;;;;;;;;;;;;;;;2066410;28;19910;-78
2024/01/11 03:27:28;;;;;;;;;;;;;;;;;;2065970;28;19914;-77
2024/01/11 03:28:49;;;;;;;;;;;;;;;;;;2066681;28;19940;-78
2024/01/11 03:30:10;;;;;;;;;;;;;;;;;;2066159;28;19913;-78
2024/01/11 03:31:31;;;;;;;;;;;;;;;;;;2066656;28;20270;-78
2024/01/11 03:32:52;;;;;;;;;;;;;;;;;;2066085;28;20231;-78
2024/01/11 03:34:13;;;;;;;;;;;;;;;;;;2051630;28;19910;-78
2024/01/11 03:35:33;;;;;;;;;;;;;;;;;;2063183;28;19913;-77
2024/01/11 03:36:54;;;;;;;;;;;;;;;;;;2060884;28;19918;-78
2024/01/11 03:38:15;;;;;;;;;;;;;;;;;;2061849;28;19928;-77
2024/01/11 03:39:35;;;;;;;;;;;;;;;;;;2065745;28;19921;-78
2024/01/11 03:40:56;;;;;;;;;;;;;;;;;;2059819;28;19910;-78
2024/01/11 03:42:17;;;;;;;;;;;;;;;;;;2061939;28;19910;-77
2024/01/11 03:43:37;;;;;;;;;;;;;;;;;;2065297;28;19920;-77
2024/01/11 03:44:58;;;;;;;;;;;;;;;;;;2067840;28;19909;-77
2024/01/11 03:46:20;;;;;;;;;;;;;;;;;;2061665;28;20333;-77
2024/01/11 03:47:42;;;;;;;;;;;;;;;;;;2062031;28;19902;-78
2024/01/11 03:49:02;;;;;;;;;;;;;;;;;;2061002;28;19921;-78
2024/01/11 03:50:23;;;;;;;;;;;;;;;;;;2062776;28;20282;-78
2024/01/11 03:51:44;;;;;;;;;;;;;;;;;;2066914;28;19910;-78
2024/01/11 03:53:04;;;;;;;;;;;;;;;;;;2065409;28;19942;-77
2024/01/11 03:54:25;;;;;;;;;;;;;;;;;;2058237;28;20370;-78
2024/01/11 03:55:46;;;;;;;;;;;;;;;;;;2062731;28;19917;-78
2024/01/11 03:57:08;;;;;;;;;;;;;;;;;;2066135;28;20001;-78
2024/01/11 03:58:29;;;;;;;;;;;;;;;;;;2062813;28;19906;-78
2024/01/11 03:59:49;;;;;;;;;;;;;;;;;;2068785;28;20230;-78
2024/01/11 04:01:10;;;;;;;;;;;;;;;;;;2065664;28;19936;-78
2024/01/11 04:02:31;;;;;;;;;;;;;;;;;;2060139;28;19910;-78
2024/01/11 04:03:52;;;;;;;;;;;;;;;;;;2058161;28;19917;-78
2024/01/11 04:05:12;;;;;;;;;;;;;;;;;;2063784;28;19914;-78
2024/01/11 04:06:33;;;;;;;;;;;;;;;;;;2053380;28;19911;-78
2024/01/11 04:07:54;;;;;;;;;;;;;;;;;;2063590;28;20291;-78
2024/01/11 04:09:14;;;;;;;;;;;;;;;;;;2062477;28;19906;-78
2024/01/11 04:10:35;;;;;;;;;;;;;;;;;;2062369;28;19921;-78
2024/01/11 04:11:56;;;;;;;;;;;;;;;;;;2062607;28;19910;-76
2024/01/11 04:13:17;;;;;;;;;;;;;;;;;;2065129;28;19910;-79
2024/01/11 04:14:37;;;;;;;;;;;;;;;;;;2070817;28;19939;-79
2024/01/11 04:15:58;;;;;;;;;;;;;;;;;;2060532;28;19910;-78
2024/01/11 04:17:19;;;;;;;;;;;;;;;;;;2057825;28;19975;-78
2024/01/11 04:18:39;;;;;;;;;;;;;;;;;;2063632;28;19917;-78
2024/01/11 04:20:01;;;;;;;;;;;;;;;;;;2059249;28;19906;-78
2024/01/11 04:21:22;;;;;;;;;;;;;;;;;;2061600;28;19906;-78
2024/01/11 04:22:42;;;;;;;;;;;;;;;;;;2057954;28;19910;-78
2024/01/11 04:24:03;;;;;;;;;;;;;;;;;;2060995;28;19914;-78
2024/01/11 04:25:24;;;;;;;;;;;;;;;;;;2063995;28;19905;-78
2024/01/11 04:26:44;;;;;;;;;;;;;;;;;;2057968;28;20035;-78
2024/01/11 04:28:05;;;;;;;;;;;;;;;;;;2063290;28;19910;-78
2024/01/11 04:29:26;;;;;;;;;;;;;;;;;;2065328;28;19920;-77
2024/01/11 04:30:47;;;;;;;;;;;;;;;;;;2067003;28;19925;-77
2024/01/11 04:32:07;;;;;;;;;;;;;;;;;;2057560;28;19906;-77
2024/01/11 04:33:28;;;;;;;;;;;;;;;;;;2064326;28;20274;-77
2024/01/11 04:34:49;;;;;;;;;;;;;;;;;;2064047;28;19910;-77
2024/01/11 04:36:09;;;;;;;;;;;;;;;;;;2058258;28;19929;-78
2024/01/11 04:37:30;;;;;;;;;;;;;;;;;;2065177;28;20346;-77
2024/01/11 04:38:51;;;;;;;;;;;;;;;;;;2064712;28;19905;-77
2024/01/11 04:40:11;;;;;;;;;;;;;;;;;;2064622;28;19913;-77
2024/01/11 04:41:32;;;;;;;;;;;;;;;;;;2060588;28;20354;-77
2024/01/11 04:42:53;;;;;;;;;;;;;;;;;;2061491;28;19917;-77
2024/01/11 04:44:13;;;;;;;;;;;;;;;;;;2063632;28;19910;-77
2024/01/11 04:45:34;;;;;;;;;;;;;;;;;;2063433;28;19914;-77
2024/01/11 04:46:55;;;;;;;;;;;;;;;;;;2058047;28;20378;-77
2024/01/11 04:48:15;;;;;;;;;;;;;;;;;;2063358;28;19913;-78
2024/01/11 04:49:36;;;;;;;;;;;;;;;;;;2065261;28;19918;-77
2024/01/11 04:50:57;;;;;;;;;;;;;;;;;;2056982;28;19906;-77
2024/01/11 04:52:18;;;;;;;;;;;;;;;;;;2056444;28;19910;-75
2024/01/11 04:53:39;;;;;;;;;;;;;;;;;;2062783;28;19914;-77
2024/01/11 04:54:59;;;;;;;;;;;;;;;;;;2064917;28;19981;-77
2024/01/11 04:56:20;;;;;;;;;;;;;;;;;;2066138;28;19914;-77
2024/01/11 04:57:41;;;;;;;;;;;;;;;;;;2066050;28;20028;-76
2024/01/11 04:59:01;;;;;;;;;;;;;;;;;;2065200;28;19929;-77
2024/01/11 05:00:22;;;;;;;;;;;;;;;;;;2052111;28;19957;-77
2024/01/11 05:01:43;;;;;;;;;;;;;;;;;;2061655;28;19917;-77
2024/01/11 05:03:04;;;;;;;;;;;;;;;;;;2065360;28;19941;-76
2024/01/11 05:04:24;;;;;;;;;;;;;;;;;;2058394;28;19906;-78
2024/01/11 05:05:45;;;;;;;;;;;;;;;;;;2065990;28;19910;-78
2024/01/11 05:07:06;;;;;;;;;;;;;;;;;;2058011;28;19914;-77
2024/01/11 05:08:27;;;;;;;;;;;;;;;;;;2063640;28;19905;-77
2024/01/11 05:09:48;;;;;;;;;;;;;;;;;;2059661;28;19913;-78
2024/01/11 05:11:09;;;;;;;;;;;;;;;;;;2066082;28;20274;-78
2024/01/11 05:12:29;;;;;;;;;;;;;;;;;;2064526;28;19910;-77
2024/01/11 05:13:50;;;;;;;;;;;;;;;;;;2061228;28;19910;-76
2024/01/11 05:15:11;;;;;;;;;;;;;;;;;;2063246;28;20360;-78
2024/01/11 05:16:31;;;;;;;;;;;;;;;;;;2065601;28;20365;-78
2024/01/11 05:17:52;;;;;;;;;;;;;;;;;;2062947;28;20577;-77
2024/01/11 05:19:13;;;;;;;;;;;;;;;;;;2057392;28;19910;-77
2024/01/11 05:20:33;;;;;;;;;;;;;;;;;;2061449;28;19936;-77
2024/01/11 05:21:54;;;;;;;;;;;;;;;;;;2059638;28;20005;-77
2024/01/11 05:23:15;;;;;;;;;;;;;;;;;;2062423;28;19945;-77
2024/01/11 05:24:35;;;;;;;;;;;;;;;;;;2059281;28;19984;-77
2024/01/11 05:25:56;;;;;;;;;;;;;;;;;;2060970;28;19918;-77
2024/01/11 05:27:17;;;;;;;;;;;;;;;;;;2056491;28;19933;-77
2024/01/11 05:28:38;;;;;;;;;;;;;;;;;;2063491;28;20448;-77
2024/01/11 05:29:59;;;;;;;;;;;;;;;;;;2056730;28;19910;-78
2024/01/11 05:31:20;;;;;;;;;;;;;;;;;;2062669;28;19912;-77
2024/01/11 05:32:41;;;;;;;;;;;;;;;;;;2065595;28;19917;-78
2024/01/11 05:34:02;;;;;;;;;;;;;;;;;;2065612;28;19916;-77
2024/01/11 05:35:27;;;;;;;;;;;;;;;;;;2055032;28;19932;-77
2024/01/11 05:36:48;;;;;;;;;;;;;;;;;;2055916;28;19910;-77
2024/01/11 05:38:08;;;;;;;;;;;;;;;;;;2058596;28;19914;-77
2024/01/11 05:39:29;;;;;;;;;;;;;;;;;;2061289;28;19914;-78
2024/01/11 05:40:50;;;;;;;;;;;;;;;;;;2065491;28;19909;-77
2024/01/11 05:42:10;;;;;;;;;;;;;;;;;;2058914;28;19924;-78
2024/01/11 05:43:31;;;;;;;;;;;;;;;;;;2062419;28;19914;-77
2024/01/11 05:44:52;;;;;;;;;;;;;;;;;;2061333;28;19906;-77
2024/01/11 05:46:13;;;;;;;;;;;;;;;;;;2062009;28;19910;-79
2024/01/11 05:47:33;;;;;;;;;;;;;;;;;;2060982;28;19943;-78
2024/01/11 05:48:54;;;;;;;;;;;;;;;;;;2065661;28;20267;-78
2024/01/11 05:50:15;;;;;;;;;;;;;;;;;;2057601;28;20005;-77
2024/01/11 05:51:35;;;;;;;;;;;;;;;;;;2061955;28;19921;-77
2024/01/11 05:52:56;;;;;;;;;;;;;;;;;;2057889;28;19918;-77
2024/01/11 05:54:17;;;;;;;;;;;;;;;;;;2068370;28;20150;-77
2024/01/11 05:55:38;;;;;;;;;;;;;;;;;;2059698;28;19914;-79
2024/01/11 05:56:59;;;;;;;;;;;;;;;;;;2065249;28;19918;-79
2024/01/11 05:58:20;;;;;;;;;;;;;;;;;;2061826;28;19917;-78
2024/01/11 05:59:40;;;;;;;;;;;;;;;;;;2064363;28;19924;-78
2024/01/11 06:01:01;;;;;;;;;;;;;;;;;;2062503;28;19909;-77
2024/01/11 06:02:22;;;;;;;;;;;;;;;;;;2061625;28;19912;-78
2024/01/11 06:03:43;;;;;;;;;;;;;;;;;;2060041;28;19913;-77
2024/01/11 06:05:04;;;;;;;;;;;;;;;;;;2056664;28;19913;-80
2024/01/11 06:06:24;;;;;;;;;;;;;;;;;;2057720;28;19906;-76
2024/01/11 06:07:45;;;;;;;;;;;;;;;;;;2048988;28;19914;-77
2024/01/11 06:09:06;;;;;;;;;;;;;;;;;;2057284;28;19914;-77
2024/01/11 06:10:26;;;;;;;;;;;;;;;;;;2057904;28;19910;-77
2024/01/11 06:11:47;;;;;;;;;;;;;;;;;;2062544;28;19910;-76
2024/01/11 06:13:09;;;;;;;;;;;;;;;;;;2066228;28;19909;-76
2024/01/11 06:14:30;;;;;;;;;;;;;;;;;;2064702;28;19996;-76
2024/01/11 06:15:50;;;;;;;;;;;;;;;;;;2065016;28;19917;-77
2024/01/11 06:17:11;;;;;;;;;;;;;;;;;;2055883;28;20337;-78
2024/01/11 06:18:32;;;;;;;;;;;;;;;;;;2062781;28;19910;-78
2024/01/11 06:19:52;;;;;;;;;;;;;;;;;;2061427;28;19964;-77
2024/01/11 06:21:15;;;;;;;;;;;;;;;;;;2064865;28;19909;-77
2024/01/11 06:22:35;;;;;;;;;;;;;;;;;;2063092;28;19917;-78
2024/01/11 06:23:56;;;;;;;;;;;;;;;;;;2057496;28;19914;-78
2024/01/11 06:25:18;;;;;;;;;;;;;;;;;;2064427;28;19929;-77
2024/01/11 06:26:39;;;;;;;;;;;;;;;;;;2064278;28;19990;-78
2024/01/11 06:27:59;;;;;;;;;;;;;;;;;;2057791;28;19922;-78
2024/01/11 06:29:20;;;;;;;;;;;;;;;;;;2062483;28;19905;-78
2024/01/11 06:30:42;;;;;;;;;;;;;;;;;;2065852;28;19909;-78
2024/01/11 06:32:03;;;;;;;;;;;;;;;;;;2063300;28;19906;-83
2024/01/11 06:33:24;;;;;;;;;;;;;;;;;;2054571;28;19910;-83
2024/01/11 06:34:45;;;;;;;;;;;;;;;;;;2051446;28;19949;-82
2024/01/11 06:36:07;;;;;;;;;;;;;;;;;;2063854;28;19909;-83
2024/01/11 06:37:28;;;;;;;;;;;;;;;;;;2056429;28;19910;-83
2024/01/11 06:38:48;;;;;;;;;;;;;;;;;;2063067;28;19909;-83
2024/01/11 06:40:09;;;;;;;;;;;;;;;;;;2065418;28;19910;-82
2024/01/11 06:41:30;;;;;;;;;;;;;;;;;;2056634;28;19906;-82
2024/01/11 06:42:50;;;;;;;;;;;;;;;;;;2061241;28;19913;-83
2024/01/11 06:44:11;;;;;;;;;;;;;;;;;;2060867;28;19996;-82
2024/01/11 06:45:32;;;;;;;;;;;;;;;;;;2055729;28;20452;-83
2024/01/11 06:46:52;;;;;;;;;;;;;;;;;;2060913;28;20153;-83
2024/01/11 06:48:13;;;;;;;;;;;;;;;;;;2055599;28;19938;-82
2024/01/11 06:49:34;;;;;;;;;;;;;;;;;;2058828;28;20286;-82
2024/01/11 06:50:54;;;;;;;;;;;;;;;;;;2056821;28;19913;-82
2024/01/11 06:52:15;;;;;;;;;;;;;;;;;;2063293;28;19958;-83
2024/01/11 06:53:36;;;;;;;;;;;;;;;;;;2054332;28;19974;-83
2024/01/11 06:54:57;;;;;;;;;;;;;;;;;;2062532;28;19906;-82
2024/01/11 06:56:17;;;;;;;;;;;;;;;;;;2056996;28;19910;-81
2024/01/11 06:57:38;;;;;;;;;;;;;;;;;;2060218;28;19968;-83
2024/01/11 06:58:59;;;;;;;;;;;;;;;;;;2067704;28;20001;-84
2024/01/11 07:00:21;;;;;;;;;;;;;;;;;;2060700;28;19993;-83
2024/01/11 07:01:42;;;;;;;;;;;;;;;;;;2061614;28;19910;-83
2024/01/11 07:03:02;;;;;;;;;;;;;;;;;;2053667;28;20274;-83
2024/01/11 07:04:23;;;;;;;;;;;;;;;;;;2068800;28;19912;-84
2024/01/11 07:05:44;;;;;;;;;;;;;;;;;;2061366;28;19962;-83
2024/01/11 07:07:04;;;;;;;;;;;;;;;;;;2066262;28;19905;-83
2024/01/11 07:08:25;;;;;;;;;;;;;;;;;;2061573;28;20301;-83
2024/01/11 07:09:46;;;;;;;;;;;;;;;;;;2066134;28;19909;-83
2024/01/11 07:11:07;;;;;;;;;;;;;;;;;;2054588;28;19921;-85
2024/01/11 07:12:28;;;;;;;;;;;;;;;;;;2067290;28;20361;-86
2024/01/11 07:13:48;;;;;;;;;;;;;;;;;;2060403;28;19914;-86
2024/01/11 07:15:09;;;;;;;;;;;;;;;;;;2057436;28;19960;-85
2024/01/11 07:16:30;;;;;;;;;;;;;;;;;;2059382;28;19976;-85
2024/01/11 07:17:53;;;;;;;;;;;;;;;;;;2059072;28;19918;-85
2024/01/11 07:19:14;;;;;;;;;;;;;;;;;;2069314;28;20389;-86
2024/01/11 07:20:34;;;;;;;;;;;;;;;;;;2061037;28;19910;-85
2024/01/11 07:21:55;;;;;;;;;;;;;;;;;;2058541;28;19910;-86
2024/01/11 07:23:16;;;;;;;;;;;;;;;;;;2060735;28;19906;-85
2024/01/11 07:24:39;;;;;;;;;;;;;;;;;;2056245;28;19933;-85
2024/01/11 07:26:00;;;;;;;;;;;;;;;;;;2069647;28;19905;-85
2024/01/11 07:27:24;;;;;;;;;;;;;;;;;;2052749;28;19906;-85
2024/01/11 07:28:44;;;;;;;;;;;;;;;;;;2067668;28;20353;-85
2024/01/11 07:30:06;;;;;;;;;;;;;;;;;;2066267;28;19968;-86
2024/01/11 07:31:27;;;;;;;;;;;;;;;;;;2060001;28;19906;-85
2024/01/11 07:32:48;;;;;;;;;;;;;;;;;;2068287;28;19917;-86
2024/01/11 07:34:08;;;;;;;;;;;;;;;;;;2064282;28;19989;-84
2024/01/11 07:35:29;;;;;;;;;;;;;;;;;;2061807;28;19929;-83
2024/01/11 07:36:50;;;;;;;;;;;;;;;;;;2055161;28;19907;-84
2024/01/11 07:38:10;;;;;;;;;;;;;;;;;;2066204;28;19914;-84
2024/01/11 07:39:31;;;;;;;;;;;;;;;;;;2060742;28;19906;-84
2024/01/11 07:40:52;;;;;;;;;;;;;;;;;;2066390;28;20281;-84
2024/01/11 07:42:13;;;;;;;;;;;;;;;;;;2069349;28;19913;-84
2024/01/11 07:43:35;;;;;;;;;;;;;;;;;;2053856;28;19949;-84
2024/01/11 07:44:55;;;;;;;;;;;;;;;;;;2059475;28;19906;-84
2024/01/11 07:46:16;;;;;;;;;;;;;;;;;;2063257;28;19917;-85
2024/01/11 07:47:37;;;;;;;;;;;;;;;;;;2066336;28;19906;-84
2024/01/11 07:48:58;;;;;;;;;;;;;;;;;;2060960;28;19902;-85
2024/01/11 07:50:19;;;;;;;;;;;;;;;;;;2070732;28;19905;-85
2024/01/11 07:51:40;;;;;;;;;;;;;;;;;;2069586;28;20353;-85
2024/01/11 07:53:01;;;;;;;;;;;;;;;;;;2056336;28;19910;-86
2024/01/11 07:54:21;;;;;;;;;;;;;;;;;;2064044;28;19909;-84
2024/01/11 07:55:43;;;;;;;;;;;;;;;;;;2052760;28;19914;-84
2024/01/11 07:57:03;;;;;;;;;;;;;;;;;;2050385;29;20441;-84
2024/01/11 07:58:24;;;;;;;;;;;;;;;;;;2059402;28;20001;-84
2024/01/11 07:59:45;;;;;;;;;;;;;;;;;;2066783;28;19905;-83
2024/01/11 08:01:05;;;;;;;;;;;;;;;;;;2069905;28;19909;-83
2024/01/11 08:02:26;;;;;;;;;;;;;;;;;;2059514;28;19910;-84
2024/01/11 08:03:47;;;;;;;;;;;;;;;;;;2068024;28;19909;-84
2024/01/11 08:05:08;;;;;;;;;;;;;;;;;;2067641;28;19960;-84
2024/01/11 08:06:28;;;;;;;;;;;;;;;;;;2053081;28;19906;-84
2024/01/11 08:07:49;;;;;;;;;;;;;;;;;;2057141;28;20389;-83
2024/01/11 08:09:10;;;;;;;;;;;;;;;;;;2060853;28;20409;-84
2024/01/11 08:10:31;;;;;;;;;;;;;;;;;;2056785;28;19910;-84
2024/01/11 08:11:54;;;;;;;;;;;;;;;;;;2058395;28;19906;-84
2024/01/11 08:13:15;;;;;;;;;;;;;;;;;;2058303;28;20355;-83
2024/01/11 08:14:36;;;;;;;;;;;;;;;;;;2062106;28;19906;-84
2024/01/11 08:15:57;;;;;;;;;;;;;;;;;;2058303;28;20290;-84
2024/01/11 08:17:18;;;;;;;;;;;;;;;;;;2058586;28;19918;-83
2024/01/11 08:18:38;;;;;;;;;;;;;;;;;;2057238;28;20394;-84
2024/01/11 08:19:59;;;;;;;;;;;;;;;;;;2060773;28;19913;-84
2024/01/11 08:21:20;;;;;;;;;;;;;;;;;;2064644;28;19913;-84
2024/01/11 08:22:41;;;;;;;;;;;;;;;;;;2058708;28;20140;-84
2024/01/11 08:24:02;;;;;;;;;;;;;;;;;;2063056;28;20028;-83
2024/01/11 08:25:23;;;;;;;;;;;;;;;;;;2067272;28;19917;-83
2024/01/11 08:26:44;;;;;;;;;;;;;;;;;;2067363;28;20035;-83
2024/01/11 08:28:05;;;;;;;;;;;;;;;;;;2066502;28;19914;-84
2024/01/11 08:29:26;;;;;;;;;;;;;;;;;;2066560;28;20378;-83
2024/01/11 08:30:46;;;;;;;;;;;;;;;;;;2066006;28;20297;-84
2024/01/11 08:32:07;;;;;;;;;;;;;;;;;;2059146;28;19906;-83
2024/01/11 08:33:28;;;;;;;;;;;;;;;;;;2062686;28;19906;-84
2024/01/11 08:34:48;;;;;;;;;;;;;;;;;;2057857;28;19913;-83
2024/01/11 08:36:11;;;;;;;;;;;;;;;;;;2065361;28;19912;-83
2024/01/11 08:37:32;;;;;;;;;;;;;;;;;;2062819;28;19910;-83
2024/01/11 08:38:53;;;;;;;;;;;;;;;;;;2058142;28;20122;-84
2024/01/11 08:40:14;;;;;;;;;;;;;;;;;;2060521;28;19984;-84
2024/01/11 08:41:37;;;;;;;;;;;;;;;;;;2072036;28;19921;-83
2024/01/11 08:42:58;;;;;;;;;;;;;;;;;;2061447;28;19917;-83
2024/01/11 08:44:19;;;;;;;;;;;;;;;;;;2058846;28;19915;-83
2024/01/11 08:45:39;;;;;;;;;;;;;;;;;;2060196;28;20353;-83
2024/01/11 08:47:00;;;;;;;;;;;;;;;;;;2065775;28;19913;-83
2024/01/11 08:48:21;;;;;;;;;;;;;;;;;;2059956;28;20310;-83
2024/01/11 08:49:42;;;;;;;;;;;;;;;;;;2056070;28;19949;-83
2024/01/11 08:51:02;;;;;;;;;;;;;;;;;;2057466;28;19981;-83
2024/01/11 08:52:23;;;;;;;;;;;;;;;;;;2057424;28;19906;-83
2024/01/11 08:53:44;;;;;;;;;;;;;;;;;;2065250;28;19913;-83
2024/01/11 08:55:04;;;;;;;;;;;;;;;;;;2052581;28;20371;-83
2024/01/11 08:56:25;;;;;;;;;;;;;;;;;;2051599;28;20274;-83
2024/01/11 08:57:46;;;;;;;;;;;;;;;;;;2063847;28;20381;-83
2024/01/11 08:59:08;;;;;;;;;;;;;;;;;;2066696;28;19922;-83
2024/01/11 09:00:29;;;;;;;;;;;;;;;;;;2051888;28;19910;-83
2024/01/11 09:01:50;;;;;;;;;;;;;;;;;;2055464;28;20622;-83
2024/01/11 09:03:12;;;;;;;;;;;;;;;;;;2050044;28;19913;-83
2024/01/11 09:04:33;;;;;;;;;;;;;;;;;;2057828;28;19945;-82
2024/01/11 09:05:56;;;;;;;;;;;;;;;;;;2054863;28;19910;-84
2024/01/11 09:07:17;;;;;;;;;;;;;;;;;;2062042;28;20392;-83
2024/01/11 09:08:38;;;;;;;;;;;;;;;;;;2056837;28;19914;-82
2024/01/11 09:09:58;;;;;;;;;;;;;;;;;;2057653;28;19906;-83
2024/01/11 09:11:20;;;;;;;;;;;;;;;;;;2064672;28;19914;-83